Time;durP1;ratioP1;P1;durP2;ratioP2;P2;SDS_P1;SDS_P2;PMS_P1;PMS_P2;Temp;Humidity;BMP_temperature;BMP_pressure;BME280_temperature;BME280_humidity;BME280_pressure;Samples;Min_cycle;Max_cycle;Signal;HPM_P1;HPM_P2
2019/11/04 00:00:45;;;;;;;2.3;0.8;;;;;;;;;;;;;
2019/11/04 00:03:10;;;;;;;1.3;0.8;;;;;;;;;;;;;
2019/11/04 00:05:35;;;;;;;1.5;1;;;;;;;;;;;;;
2019/11/04 00:08:00;;;;;;;1.1;1;;;;;;;;;;;;;
2019/11/04 00:10:25;;;;;;;1.8;0.7;;;;;;;;;;;;;
2019/11/04 00:12:50;;;;;;;1;0.6;;;;;;;;;;;;;
2019/11/04 00:15:15;;;;;;;1.9;0.8;;;;;;;;;;;;;
2019/11/04 00:17:41;;;;;;;0.8;0.8;;;;;;;;;;;;;
2019/11/04 00:20:05;;;;;;;1.8;0.8;;;;;;;;;;;;;
2019/11/04 00:22:31;;;;;;;1.3;0.7;;;;;;;;;;;;;
2019/11/04 00:25:03;;;;;;;1;0.6;;;;;;;;;;;;;
2019/11/04 00:27:21;;;;;;;1.9;0.8;;;;;;;;;;;;;
2019/11/04 00:29:46;;;;;;;2.6;0.6;;;;;;;;;;;;;
2019/11/04 00:32:11;;;;;;;0.7;0.6;;;;;;;;;;;;;
2019/11/04 00:34:36;;;;;;;0.6;0.6;;;;;;;;;;;;;
2019/11/04 00:37:01;;;;;;;1;0.7;;;;;;;;;;;;;
2019/11/04 00:39:26;;;;;;;0.7;0.7;;;;;;;;;;;;;
2019/11/04 00:41:51;;;;;;;0.8;0.6;;;;;;;;;;;;;
2019/11/04 00:44:16;;;;;;;1.7;0.6;;;;;;;;;;;;;
2019/11/04 00:46:41;;;;;;;0.5;0.5;;;;;;;;;;;;;
2019/11/04 00:49:07;;;;;;;0.6;0.6;;;;;;;;;;;;;
2019/11/04 00:51:32;;;;;;;0.8;0.5;;;;;;;;;;;;;
2019/11/04 00:53:57;;;;;;;0.6;0.5;;;;;;;;;;;;;
2019/11/04 00:56:22;;;;;;;0.5;0.5;;;;;;;;;;;;;
2019/11/04 00:58:47;;;;;;;0.5;0.5;;;;;;;;;;;;;
2019/11/04 01:01:12;;;;;;;1.2;0.4;;;;;;;;;;;;;
2019/11/04 01:03:37;;;;;;;0.7;0.6;;;;;;;;;;;;;
2019/11/04 01:06:02;;;;;;;0.6;0.5;;;;;;;;;;;;;
2019/11/04 01:08:27;;;;;;;1.1;0.5;;;;;;;;;;;;;
2019/11/04 01:10:52;;;;;;;1.5;0.5;;;;;;;;;;;;;
2019/11/04 01:13:18;;;;;;;0.6;0.6;;;;;;;;;;;;;
2019/11/04 01:15:43;;;;;;;0.7;0.5;;;;;;;;;;;;;
2019/11/04 01:18:08;;;;;;;0.8;0.5;;;;;;;;;;;;;
2019/11/04 01:20:33;;;;;;;0.7;0.6;;;;;;;;;;;;;
2019/11/04 01:22:58;;;;;;;0.5;0.5;;;;;;;;;;;;;
2019/11/04 01:25:23;;;;;;;0.6;0.6;;;;;;;;;;;;;
2019/11/04 01:27:48;;;;;;;0.8;0.6;;;;;;;;;;;;;
2019/11/04 01:30:13;;;;;;;0.8;0.6;;;;;;;;;;;;;
2019/11/04 01:32:38;;;;;;;0.6;0.6;;;;;;;;;;;;;
2019/11/04 01:35:04;;;;;;;0.7;0.6;;;;;;;;;;;;;
2019/11/04 01:37:29;;;;;;;1.1;0.5;;;;;;;;;;;;;
2019/11/04 01:39:54;;;;;;;0.8;0.7;;;;;;;;;;;;;
2019/11/04 01:42:19;;;;;;;0.7;0.6;;;;;;;;;;;;;
2019/11/04 01:44:44;;;;;;;0.6;0.6;;;;;;;;;;;;;
2019/11/04 01:47:09;;;;;;;0.9;0.7;;;;;;;;;;;;;
2019/11/04 01:49:34;;;;;;;0.9;0.7;;;;;;;;;;;;;
2019/11/04 01:51:59;;;;;;;1.1;0.7;;;;;;;;;;;;;
2019/11/04 01:54:25;;;;;;;1.2;0.7;;;;;;;;;;;;;
2019/11/04 01:56:49;;;;;;;1.4;0.7;;;;;;;;;;;;;
2019/11/04 01:59:14;;;;;;;1.6;0.8;;;;;;;;;;;;;
2019/11/04 02:01:39;;;;;;;1.1;0.8;;;;;;;;;;;;;
2019/11/04 02:04:05;;;;;;;2.7;0.9;;;;;;;;;;;;;
2019/11/04 02:06:30;;;;;;;2;0.8;;;;;;;;;;;;;
2019/11/04 02:08:55;;;;;;;1.3;0.8;;;;;;;;;;;;;
2019/11/04 02:11:20;;;;;;;1.9;0.9;;;;;;;;;;;;;
2019/11/04 02:13:45;;;;;;;2.5;0.8;;;;;;;;;;;;;
2019/11/04 02:16:10;;;;;;;1.4;0.9;;;;;;;;;;;;;
2019/11/04 02:18:35;;;;;;;1.1;0.8;;;;;;;;;;;;;
2019/11/04 02:21:00;;;;;;;1.1;0.7;;;;;;;;;;;;;
2019/11/04 02:23:25;;;;;;;2;0.8;;;;;;;;;;;;;
2019/11/04 02:25:51;;;;;;;1.4;0.8;;;;;;;;;;;;;
2019/11/04 02:28:16;;;;;;;2.1;1;;;;;;;;;;;;;
2019/11/04 02:30:41;;;;;;;1.9;0.9;;;;;;;;;;;;;
2019/11/04 02:33:06;;;;;;;2.5;0.9;;;;;;;;;;;;;
2019/11/04 02:35:31;;;;;;;2.2;0.9;;;;;;;;;;;;;
2019/11/04 02:37:56;;;;;;;3;0.9;;;;;;;;;;;;;
2019/11/04 02:40:21;;;;;;;3.1;0.9;;;;;;;;;;;;;
2019/11/04 02:42:47;;;;;;;1.8;0.9;;;;;;;;;;;;;
2019/11/04 02:45:12;;;;;;;1.8;0.8;;;;;;;;;;;;;
2019/11/04 02:47:37;;;;;;;4.1;1;;;;;;;;;;;;;
2019/11/04 02:50:02;;;;;;;1.8;0.9;;;;;;;;;;;;;
2019/11/04 02:52:27;;;;;;;1.8;0.8;;;;;;;;;;;;;
2019/11/04 02:54:52;;;;;;;2.5;0.9;;;;;;;;;;;;;
2019/11/04 02:57:17;;;;;;;2.6;0.9;;;;;;;;;;;;;
2019/11/04 02:59:42;;;;;;;2.8;1;;;;;;;;;;;;;
2019/11/04 03:02:07;;;;;;;2.8;1;;;;;;;;;;;;;
2019/11/04 03:04:32;;;;;;;2;0.9;;;;;;;;;;;;;
2019/11/04 03:06:57;;;;;;;1.8;0.9;;;;;;;;;;;;;
2019/11/04 03:09:22;;;;;;;2.1;1;;;;;;;;;;;;;
2019/11/04 03:11:48;;;;;;;2.7;0.9;;;;;;;;;;;;;
2019/11/04 03:14:13;;;;;;;1.5;0.8;;;;;;;;;;;;;
2019/11/04 03:16:38;;;;;;;2.1;0.9;;;;;;;;;;;;;
2019/11/04 03:19:03;;;;;;;2.3;1;;;;;;;;;;;;;
2019/11/04 03:21:28;;;;;;;3.2;0.9;;;;;;;;;;;;;
2019/11/04 03:24:00;;;;;;;1.7;0.6;;;;;;;;;;;;;
2019/11/04 03:27:18;;;;;;;1.9;0.7;;;;;;;;;;;;;
2019/11/04 03:28:43;;;;;;;2;1;;;;;;;;;;;;;
2019/11/04 03:31:08;;;;;;;1.2;0.6;;;;;;;;;;;;;
2019/11/04 03:33:34;;;;;;;1.8;0.8;;;;;;;;;;;;;
2019/11/04 03:35:59;;;;;;;1.8;0.7;;;;;;;;;;;;;
2019/11/04 03:38:24;;;;;;;1.7;0.7;;;;;;;;;;;;;
2019/11/04 03:40:49;;;;;;;2.4;0.8;;;;;;;;;;;;;
2019/11/04 03:43:14;;;;;;;1.8;0.7;;;;;;;;;;;;;
2019/11/04 03:45:39;;;;;;;1.4;0.8;;;;;;;;;;;;;
2019/11/04 03:48:04;;;;;;;1.7;0.8;;;;;;;;;;;;;
2019/11/04 03:50:29;;;;;;;1.5;0.8;;;;;;;;;;;;;
2019/11/04 03:53:04;;;;;;;2.6;0.8;;;;;;;;;;;;;
2019/11/04 03:55:29;;;;;;;1.8;0.9;;;;;;;;;;;;;
2019/11/04 03:57:55;;;;;;;1.6;0.7;;;;;;;;;;;;;
2019/11/04 04:02:28;;;;;;;1.5;0.7;;;;;;;11.31;92.45801;979.7425;;;;
2019/11/04 04:04:53;;;;;;;2.3;0.8;;;;;;;11.26;92.46973;979.7683;;;;
2019/11/04 04:07:18;;;;;;;3.4;0.8;;;;;;;11.26;92.2168;979.7209;;;;
2019/11/04 04:09:43;;;;;;;0.9;0.8;;;;;;;11.22;92.32422;979.7881;;;;
2019/11/04 04:12:08;;;;;;;1.4;0.7;;;;;;;11.12;92.62402;979.7553;;;;
2019/11/04 04:14:33;;;;;;;1.1;0.7;;;;;;;11.2;92.10059;979.7294;;;;
2019/11/04 04:16:58;;;;;;;0.9;0.7;;;;;;;11.15;92.35254;979.8272;;;;
2019/11/04 04:19:24;;;;;;;2.4;0.8;;;;;;;11.21;91.79297;979.7582;;;;
2019/11/04 04:21:49;;;;;;;2.2;0.8;;;;;;;11.27;91.40625;979.7826;;;;
2019/11/04 04:24:14;;;;;;;2;0.8;;;;;;;11.2;91.74512;979.7845;;;;
2019/11/04 04:26:39;;;;;;;1.8;0.6;;;;;;;11.26;91.44824;979.8061;;;;
2019/11/04 04:29:04;;;;;;;1.6;0.7;;;;;;;11.17;91.91113;979.8105;;;;
2019/11/04 04:31:29;;;;;;;2.2;0.8;;;;;;;11.22;91.73926;979.7944;;;;
2019/11/04 04:33:54;;;;;;;2;0.7;;;;;;;11.25;91.42383;979.8223;;;;
2019/11/04 04:36:19;;;;;;;1.2;0.7;;;;;;;11.28;91.33984;979.837;;;;
2019/11/04 04:38:45;;;;;;;1.3;0.7;;;;;;;11.3;90.85059;979.8666;;;;
2019/11/04 04:41:10;;;;;;;2.3;1;;;;;;;11.33;90.52344;979.8781;;;;
2019/11/04 04:43:35;;;;;;;1.5;0.5;;;;;;;11.32;90.61328;979.9119;;;;
2019/11/04 04:46:00;;;;;;;1.2;0.7;;;;;;;11.32;90.92285;979.8633;;;;
2019/11/04 04:48:25;;;;;;;1.2;0.8;;;;;;;11.38;90.18848;979.8795;;;;
2019/11/04 04:50:51;;;;;;;1.3;0.6;;;;;;;11.4;89.97656;979.9486;;;;
2019/11/04 04:53:15;;;;;;;2.6;1;;;;;;;11.34;90.67676;979.9455;;;;
2019/11/04 04:55:40;;;;;;;1;0.5;;;;;;;11.33;90.90039;979.9565;;;;
2019/11/04 04:58:06;;;;;;;1.2;0.7;;;;;;;11.37;90.58984;979.9581;;;;
2019/11/04 05:00:31;;;;;;;1.1;0.6;;;;;;;11.31;90.68066;979.8741;;;;
2019/11/04 05:02:56;;;;;;;1.4;0.6;;;;;;;11.32;90.47559;979.9609;;;;
2019/11/04 05:05:21;;;;;;;1.1;0.8;;;;;;;11.24;91.03418;979.9171;;;;
2019/11/04 05:07:46;;;;;;;1.4;0.6;;;;;;;11.31;91.2998;979.9705;;;;
2019/11/04 05:12:41;;;;;;;1;0.6;;;;;;;11.25;91.83887;980.0486;;;;
2019/11/04 05:15:02;;;;;;;1.1;0.7;;;;;;;11.24;91.80078;980.0739;;;;
2019/11/04 05:17:26;;;;;;;1.7;0.7;;;;;;;11.21;92.36816;980.0397;;;;
2019/11/04 05:19:51;;;;;;;1.6;0.8;;;;;;;11.14;92.68457;980.0617;;;;
2019/11/04 05:22:16;;;;;;;1;0.6;;;;;;;11.22;92.47266;980.0019;;;;
2019/11/04 05:24:42;;;;;;;2;0.8;;;;;;;11.12;92.63379;980.1569;;;;
2019/11/04 05:27:07;;;;;;;1.2;0.7;;;;;;;11.04;93.60352;980.048;;;;
2019/11/04 05:29:32;;;;;;;1.1;0.6;;;;;;;11.08;93.41895;980.0477;;;;
2019/11/04 05:31:57;;;;;;;2.5;0.9;;;;;;;11.02;94.39063;980.0309;;;;
2019/11/04 05:34:22;;;;;;;1.8;0.7;;;;;;;11.01;94.36328;980.0538;;;;
2019/11/04 05:36:47;;;;;;;2.1;0.7;;;;;;;11.06;94.41211;980.0567;;;;
2019/11/04 05:39:12;;;;;;;0.9;0.6;;;;;;;10.96;95.53418;979.9899;;;;
2019/11/04 05:41:37;;;;;;;1.1;0.6;;;;;;;10.95;95.28906;980.0483;;;;
2019/11/04 05:44:02;;;;;;;0.8;0.7;;;;;;;10.99;94.97852;980.0259;;;;
2019/11/04 05:46:28;;;;;;;1.5;0.7;;;;;;;10.86;95.27148;979.9913;;;;
2019/11/04 05:48:53;;;;;;;1.8;0.8;;;;;;;10.86;95.12305;979.9579;;;;
2019/11/04 05:51:18;;;;;;;0.9;0.7;;;;;;;10.86;95.11133;979.9816;;;;
2019/11/04 05:53:43;;;;;;;1.8;0.9;;;;;;;10.85;94.90527;979.9731;;;;
2019/11/04 05:56:08;;;;;;;2.1;1.1;;;;;;;10.86;94.80176;979.9461;;;;
2019/11/04 05:58:33;;;;;;;1.6;0.8;;;;;;;10.83;94.77344;979.8787;;;;
2019/11/04 06:00:58;;;;;;;1.6;0.7;;;;;;;10.76;94.8584;979.9441;;;;
2019/11/04 06:03:36;;;;;;;2.2;0.9;;;;;;;10.82;94.63379;979.962;;;;
2019/11/04 06:05:52;;;;;;;1.8;0.6;;;;;;;10.81;94.70996;979.9483;;;;
2019/11/04 06:08:13;;;;;;;2.3;0.9;;;;;;;10.88;94.65723;979.9432;;;;
2019/11/04 06:10:38;;;;;;;1.1;0.7;;;;;;;10.85;94.18359;979.8586;;;;
2019/11/04 06:13:06;;;;;;;3.3;0.9;;;;;;;10.88;94.14355;979.8389;;;;
2019/11/04 06:15:28;;;;;;;2.2;0.8;;;;;;;10.86;94.1377;979.8858;;;;
2019/11/04 06:17:54;;;;;;;1.5;0.8;;;;;;;10.93;93.92188;979.805;;;;
2019/11/04 06:20:19;;;;;;;2.6;0.9;;;;;;;10.91;93.77148;979.7283;;;;
2019/11/04 06:22:44;;;;;;;2.3;0.8;;;;;;;10.94;93.14453;979.7285;;;;
2019/11/04 06:25:09;;;;;;;2.3;0.9;;;;;;;10.83;93.74023;979.7128;;;;
2019/11/04 06:27:34;;;;;;;3.2;1;;;;;;;10.87;93.36035;979.75;;;;
2019/11/04 06:30:00;;;;;;;1.5;0.8;;;;;;;10.98;93.20215;979.6825;;;;
2019/11/04 06:32:24;;;;;;;3.2;1.1;;;;;;;10.83;93.57031;979.6978;;;;
2019/11/04 06:34:50;;;;;;;2.5;1;;;;;;;11.01;93.03613;979.6906;;;;
2019/11/04 06:37:15;;;;;;;2.9;1.5;;;;;;;10.95;92.75879;979.7112;;;;
2019/11/04 06:39:40;;;;;;;2.5;0.9;;;;;;;11;92.08301;979.7335;;;;
2019/11/04 06:42:05;;;;;;;2.2;1.3;;;;;;;10.85;92.53125;979.7283;;;;
2019/11/04 06:44:30;;;;;;;2;1;;;;;;;10.82;93.01855;979.7049;;;;
2019/11/04 06:46:55;;;;;;;4.2;1.2;;;;;;;10.76;93.21094;979.6814;;;;
2019/11/04 06:49:20;;;;;;;2.5;1;;;;;;;10.79;92.82715;979.6572;;;;
2019/11/04 06:51:45;;;;;;;2.1;0.9;;;;;;;10.81;92.06543;979.6219;;;;
2019/11/04 06:54:11;;;;;;;3.9;1.7;;;;;;;10.76;92.53516;979.6526;;;;
2019/11/04 06:56:36;;;;;;;2.4;1;;;;;;;10.85;91.81934;979.6669;;;;
2019/11/04 06:59:03;;;;;;;2.4;1.1;;;;;;;10.95;90.78809;979.6345;;;;
2019/11/04 07:01:26;;;;;;;4.7;1.2;;;;;;;11.03;90.19922;979.5815;;;;
2019/11/04 07:03:51;;;;;;;2.2;0.9;;;;;;;11.08;90.38086;979.6788;;;;
2019/11/04 07:06:23;;;;;;;2.7;1.3;;;;;;;11.12;89.92773;979.6278;;;;
2019/11/04 07:08:41;;;;;;;2.6;1.4;;;;;;;11.19;89.00488;979.63;;;;
2019/11/04 07:11:06;;;;;;;3;1.3;;;;;;;11.21;88.10254;979.6256;;;;
2019/11/04 07:13:31;;;;;;;2.7;1.1;;;;;;;11.33;87.49414;979.5808;;;;
2019/11/04 07:15:57;;;;;;;2.6;1;;;;;;;11.47;86.87109;979.6141;;;;
2019/11/04 07:18:22;;;;;;;3.5;1.3;;;;;;;11.57;86.75098;979.5767;;;;
2019/11/04 07:20:47;;;;;;;6;2.1;;;;;;;;;;;;;
2019/11/04 07:23:12;;;;;;;3.2;1.3;;;;;;;;;;;;;
2019/11/04 07:25:37;;;;;;;4.2;1.2;;;;;;;;;;;;;
2019/11/04 07:28:02;;;;;;;3;1.2;;;;;;;;;;;;;
2019/11/04 07:30:27;;;;;;;3.3;1.2;;;;;;;;;;;;;
2019/11/04 07:32:52;;;;;;;2.8;1;;;;;;;;;;;;;
2019/11/04 07:35:17;;;;;;;3.1;1;;;;;;;;;;;;;
2019/11/04 07:37:43;;;;;;;2.6;1.1;;;;;;;;;;;;;
2019/11/04 07:40:07;;;;;;;4;1.2;;;;;;;;;;;;;
2019/11/04 07:42:33;;;;;;;2.9;1.3;;;;;;;;;;;;;
2019/11/04 07:44:58;;;;;;;2.9;1.2;;;;;;;;;;;;;
2019/11/04 07:47:23;;;;;;;4.6;1.3;;;;;;;;;;;;;
2019/11/04 07:49:48;;;;;;;5.3;1.5;;;;;;;;;;;;;
2019/11/04 07:52:13;;;;;;;4.1;1.6;;;;;;;;;;;;;
2019/11/04 07:54:38;;;;;;;4.4;1.3;;;;;;;;;;;;;
2019/11/04 07:57:03;;;;;;;2.8;1.3;;;;;;;;;;;;;
2019/11/04 07:59:28;;;;;;;3.5;1.5;;;;;;;;;;;;;
2019/11/04 08:01:53;;;;;;;3.3;1.4;;;;;;;;;;;;;
2019/11/04 08:04:18;;;;;;;5.4;2.2;;;;;;;;;;;;;
2019/11/04 08:06:43;;;;;;;4.5;1.8;;;;;;;;;;;;;
2019/11/04 08:09:11;;;;;;;5.5;2.1;;;;;;;;;;;;;
2019/11/04 08:11:34;;;;;;;4.8;1.9;;;;;;;;;;;;;
2019/11/04 08:13:59;;;;;;;3.6;1.6;;;;;;;;;;;;;
2019/11/04 08:16:24;;;;;;;5.8;2.2;;;;;;;;;;;;;
2019/11/04 08:18:49;;;;;;;5.1;1.9;;;;;;;;;;;;;
2019/11/04 08:21:14;;;;;;;4.4;1.7;;;;;;;;;;;;;
2019/11/04 08:23:39;;;;;;;9.2;2.5;;;;;;;;;;;;;
2019/11/04 08:26:04;;;;;;;7.5;2.3;;;;;;;;;;;;;
2019/11/04 08:28:29;;;;;;;5.6;2.2;;;;;;;;;;;;;
2019/11/04 08:30:54;;;;;;;4.2;1.6;;;;;;;;;;;;;
2019/11/04 08:33:20;;;;;;;7.1;1.6;;;;;;;;;;;;;
2019/11/04 08:35:44;;;;;;;4.9;1.5;;;;;;;;;;;;;
2019/11/04 08:38:10;;;;;;;5.4;1.4;;;;;;;;;;;;;
2019/11/04 08:40:35;;;;;;;4.7;1.6;;;;;;;;;;;;;
2019/11/04 08:43:00;;;;;;;4;1.4;;;;;;;;;;;;;
2019/11/04 08:45:25;;;;;;;4.6;1.4;;;;;;;;;;;;;
2019/11/04 08:47:50;;;;;;;5.9;1.2;;;;;;;;;;;;;
2019/11/04 08:50:15;;;;;;;6.2;1.7;;;;;;;;;;;;;
2019/11/04 08:52:41;;;;;;;7.2;1.7;;;;;;;;;;;;;
2019/11/04 08:55:05;;;;;;;3.9;1;;;;;;;;;;;;;
2019/11/04 08:57:30;;;;;;;3.3;1.4;;;;;;;;;;;;;
2019/11/04 08:59:55;;;;;;;4.9;1.4;;;;;;;;;;;;;
2019/11/04 09:02:20;;;;;;;4;1.6;;;;;;;;;;;;;
2019/11/04 09:04:45;;;;;;;2.8;1;;;;;;;;;;;;;
2019/11/04 09:07:10;;;;;;;3.5;1.4;;;;;;;;;;;;;
2019/11/04 09:09:35;;;;;;;3.4;1;;;;;;;;;;;;;
2019/11/04 09:12:00;;;;;;;3.6;1.3;;;;;;;;;;;;;
2019/11/04 09:14:25;;;;;;;2.4;1.1;;;;;;;;;;;;;
2019/11/04 09:16:51;;;;;;;2.8;1.3;;;;;;;;;;;;;
2019/11/04 09:19:16;;;;;;;2.6;1.1;;;;;;;;;;;;;
2019/11/04 09:21:41;;;;;;;3.5;1.1;;;;;;;;;;;;;
2019/11/04 09:24:06;;;;;;;2.6;1;;;;;;;;;;;;;
2019/11/04 09:26:31;;;;;;;2.8;1.2;;;;;;;;;;;;;
2019/11/04 09:28:56;;;;;;;4.2;1.1;;;;;;;;;;;;;
2019/11/04 09:31:21;;;;;;;2.3;1;;;;;;;;;;;;;
2019/11/04 09:33:46;;;;;;;2;1.1;;;;;;;;;;;;;
2019/11/04 09:36:11;;;;;;;2.2;1.2;;;;;;;;;;;;;
2019/11/04 09:38:36;;;;;;;2.2;1;;;;;;;;;;;;;
2019/11/04 09:41:02;;;;;;;2.3;1.1;;;;;;;;;;;;;
2019/11/04 09:43:26;;;;;;;3;0.9;;;;;;;;;;;;;
2019/11/04 09:45:52;;;;;;;2.4;1;;;;;;;;;;;;;
2019/11/04 09:48:17;;;;;;;3.6;1.1;;;;;;;;;;;;;
2019/11/04 09:50:42;;;;;;;2.6;1;;;;;;;;;;;;;
2019/11/04 09:53:07;;;;;;;4.2;0.9;;;;;;;;;;;;;
2019/11/04 09:55:32;;;;;;;2;0.9;;;;;;;;;;;;;
2019/11/04 09:57:57;;;;;;;3;0.9;;;;;;;;;;;;;
2019/11/04 10:00:23;;;;;;;3.5;1.1;;;;;;;;;;;;;
2019/11/04 10:02:48;;;;;;;3.8;1.4;;;;;;;;;;;;;
2019/11/04 10:05:13;;;;;;;2.9;1;;;;;;;;;;;;;
2019/11/04 10:07:38;;;;;;;5.5;1.5;;;;;;;;;;;;;
2019/11/04 10:10:03;;;;;;;2.8;0.9;;;;;;;;;;;;;
2019/11/04 10:12:30;;;;;;;4.1;1.2;;;;;;;;;;;;;
2019/11/04 10:14:54;;;;;;;3.8;1;;;;;;;;;;;;;
2019/11/04 10:17:19;;;;;;;2.6;1.1;;;;;;;;;;;;;
2019/11/04 10:19:44;;;;;;;1.8;1;;;;;;;;;;;;;
2019/11/04 10:22:09;;;;;;;1.9;1;;;;;;;;;;;;;
2019/11/04 10:24:34;;;;;;;1.8;1;;;;;;;;;;;;;
2019/11/04 10:26:59;;;;;;;2.5;1;;;;;;;;;;;;;
2019/11/04 10:29:24;;;;;;;3.9;1.4;;;;;;;;;;;;;
2019/11/04 10:31:50;;;;;;;2.2;1.1;;;;;;;;;;;;;
2019/11/04 10:34:15;;;;;;;2.9;1.3;;;;;;;;;;;;;
2019/11/04 10:36:40;;;;;;;3;1;;;;;;;;;;;;;
2019/11/04 10:39:05;;;;;;;3.1;1.2;;;;;;;;;;;;;
2019/11/04 10:41:30;;;;;;;3.5;1.2;;;;;;;;;;;;;
2019/11/04 10:43:55;;;;;;;4;1.2;;;;;;;;;;;;;
2019/11/04 10:46:21;;;;;;;2.8;1.1;;;;;;;;;;;;;
2019/11/04 10:48:47;;;;;;;2.1;1;;;;;;;;;;;;;
2019/11/04 10:51:11;;;;;;;1.8;1;;;;;;;;;;;;;
2019/11/04 10:53:36;;;;;;;2.9;0.7;;;;;;;;;;;;;
2019/11/04 10:56:01;;;;;;;1.2;0.7;;;;;;;;;;;;;
2019/11/04 10:58:26;;;;;;;3.7;0.9;;;;;;;;;;;;;
2019/11/04 11:00:52;;;;;;;1.4;0.9;;;;;;;;;;;;;
2019/11/04 11:03:17;;;;;;;1.9;0.9;;;;;;;;;;;;;
2019/11/04 11:05:42;;;;;;;1.7;0.8;;;;;;;;;;;;;
2019/11/04 11:08:07;;;;;;;0.9;0.6;;;;;;;;;;;;;
2019/11/04 11:10:32;;;;;;;1.3;0.7;;;;;;;;;;;;;
2019/11/04 11:12:57;;;;;;;0.8;0.5;;;;;;;;;;;;;
2019/11/04 11:15:22;;;;;;;1.4;0.7;;;;;;;;;;;;;
2019/11/04 11:17:48;;;;;;;2.7;0.7;;;;;;;;;;;;;
2019/11/04 11:20:13;;;;;;;1.7;0.7;;;;;;;;;;;;;
2019/11/04 11:22:37;;;;;;;2.9;0.7;;;;;;;;;;;;;
2019/11/04 11:25:03;;;;;;;1.5;0.9;;;;;;;;;;;;;
2019/11/04 11:27:28;;;;;;;2.5;0.9;;;;;;;;;;;;;
2019/11/04 11:29:53;;;;;;;1.9;0.6;;;;;;;;;;;;;
2019/11/04 11:32:18;;;;;;;3.1;0.8;;;;;;;;;;;;;
2019/11/04 11:34:43;;;;;;;0.8;0.7;;;;;;;;;;;;;
2019/11/04 11:37:08;;;;;;;1.5;0.9;;;;;;;;;;;;;
2019/11/04 11:39:34;;;;;;;1.8;0.6;;;;;;;;;;;;;
2019/11/04 11:41:59;;;;;;;2.7;1;;;;;;;;;;;;;
2019/11/04 11:44:24;;;;;;;1.8;0.8;;;;;;;;;;;;;
2019/11/04 11:46:49;;;;;;;3.5;0.7;;;;;;;;;;;;;
2019/11/04 11:49:14;;;;;;;1.5;0.7;;;;;;;;;;;;;
2019/11/04 11:51:39;;;;;;;1.7;0.8;;;;;;;;;;;;;
2019/11/04 11:54:04;;;;;;;2.1;1.2;;;;;;;;;;;;;
2019/11/04 11:56:29;;;;;;;1.2;0.7;;;;;;;;;;;;;
2019/11/04 11:58:54;;;;;;;1.2;0.7;;;;;;;;;;;;;
2019/11/04 12:01:20;;;;;;;1.4;0.8;;;;;;;;;;;;;
2019/11/04 12:03:45;;;;;;;2.1;0.7;;;;;;;;;;;;;
2019/11/04 12:06:10;;;;;;;2.9;0.9;;;;;;;;;;;;;
2019/11/04 12:08:35;;;;;;;2;0.8;;;;;;;;;;;;;
2019/11/04 12:11:00;;;;;;;1.7;0.9;;;;;;;;;;;;;
2019/11/04 12:13:25;;;;;;;2.5;0.7;;;;;;;;;;;;;
2019/11/04 12:15:50;;;;;;;1.1;0.8;;;;;;;;;;;;;
2019/11/04 12:18:15;;;;;;;2.6;0.9;;;;;;;;;;;;;
2019/11/04 12:20:40;;;;;;;2;1;;;;;;;;;;;;;
2019/11/04 12:23:06;;;;;;;2.3;0.9;;;;;;;;;;;;;
2019/11/04 12:25:30;;;;;;;1.9;0.9;;;;;;;;;;;;;
2019/11/04 12:27:56;;;;;;;2.2;0.6;;;;;;;;;;;;;
2019/11/04 12:30:21;;;;;;;1.1;0.7;;;;;;;;;;;;;
2019/11/04 12:32:46;;;;;;;1;0.7;;;;;;;;;;;;;
2019/11/04 12:35:11;;;;;;;1.3;0.8;;;;;;;;;;;;;
2019/11/04 12:37:36;;;;;;;2.1;0.8;;;;;;;;;;;;;
2019/11/04 12:40:01;;;;;;;2.9;0.9;;;;;;;;;;;;;
2019/11/04 12:42:27;;;;;;;1.4;0.7;;;;;;;;;;;;;
2019/11/04 12:44:52;;;;;;;2.3;0.9;;;;;;;;;;;;;
2019/11/04 12:47:17;;;;;;;1.7;0.8;;;;;;;;;;;;;
2019/11/04 12:49:42;;;;;;;2.5;1;;;;;;;;;;;;;
2019/11/04 12:52:07;;;;;;;1.5;1;;;;;;;;;;;;;
2019/11/04 12:54:32;;;;;;;3;0.9;;;;;;;;;;;;;
2019/11/04 12:56:57;;;;;;;2.1;1;;;;;;;;;;;;;
2019/11/04 12:59:23;;;;;;;3.1;0.8;;;;;;;;;;;;;
2019/11/04 13:01:50;;;;;;;1.5;0.9;;;;;;;;;;;;;
2019/11/04 13:04:14;;;;;;;1.2;0.7;;;;;;;;;;;;;
2019/11/04 13:06:39;;;;;;;1.2;0.8;;;;;;;;;;;;;
2019/11/04 13:09:03;;;;;;;2.7;0.9;;;;;;;;;;;;;
2019/11/04 13:11:28;;;;;;;2.4;1.1;;;;;;;;;;;;;
2019/11/04 13:13:53;;;;;;;1.4;0.8;;;;;;;;;;;;;
2019/11/04 13:16:18;;;;;;;2;0.9;;;;;;;;;;;;;
2019/11/04 13:18:43;;;;;;;3.4;1.2;;;;;;;;;;;;;
2019/11/04 13:21:09;;;;;;;3.6;2;;;;;;;;;;;;;
2019/11/04 13:23:33;;;;;;;2.2;1;;;;;;;;;;;;;
2019/11/04 13:25:59;;;;;;;2.7;1;;;;;;;;;;;;;
2019/11/04 13:28:24;;;;;;;1.9;1.3;;;;;;;;;;;;;
2019/11/04 13:30:49;;;;;;;2.6;1.1;;;;;;;;;;;;;
2019/11/04 13:33:14;;;;;;;1.5;0.9;;;;;;;;;;;;;
2019/11/04 13:35:39;;;;;;;2.8;1.2;;;;;;;;;;;;;
2019/11/04 13:38:04;;;;;;;1.8;0.8;;;;;;;;;;;;;
2019/11/04 13:40:30;;;;;;;2.9;1;;;;;;;;;;;;;
2019/11/04 13:42:55;;;;;;;5.6;2.5;;;;;;;;;;;;;
2019/11/04 13:45:19;;;;;;;2;1.3;;;;;;;;;;;;;
2019/11/04 13:47:45;;;;;;;3.3;1.4;;;;;;;;;;;;;
2019/11/04 13:50:10;;;;;;;2.4;1;;;;;;;;;;;;;
2019/11/04 13:52:35;;;;;;;2;0.9;;;;;;;;;;;;;
2019/11/04 13:55:00;;;;;;;2.2;1;;;;;;;;;;;;;
2019/11/04 13:57:25;;;;;;;4.2;1.3;;;;;;;;;;;;;
2019/11/04 13:59:50;;;;;;;3.8;1.5;;;;;;;;;;;;;
2019/11/04 14:02:15;;;;;;;4.9;1.3;;;;;;;;;;;;;
2019/11/04 14:04:41;;;;;;;4;1.1;;;;;;;;;;;;;
2019/11/04 14:07:06;;;;;;;2.4;1.1;;;;;;;;;;;;;
2019/11/04 14:09:31;;;;;;;3.1;1;;;;;;;;;;;;;
2019/11/04 14:11:56;;;;;;;2.3;1;;;;;;;;;;;;;
2019/11/04 14:14:21;;;;;;;2.6;1;;;;;;;;;;;;;
2019/11/04 14:16:46;;;;;;;2.9;1;;;;;;;;;;;;;
2019/11/04 14:19:11;;;;;;;2.8;1;;;;;;;;;;;;;
2019/11/04 14:21:36;;;;;;;4.7;1.1;;;;;;;;;;;;;
2019/11/04 14:24:02;;;;;;;2.1;1;;;;;;;;;;;;;
2019/11/04 14:26:27;;;;;;;2.5;1.1;;;;;;;;;;;;;
2019/11/04 14:28:52;;;;;;;2.9;1;;;;;;;;;;;;;
2019/11/04 14:31:17;;;;;;;2.2;0.9;;;;;;;;;;;;;
2019/11/04 14:33:42;;;;;;;3.2;1.3;;;;;;;;;;;;;
2019/11/04 14:36:07;;;;;;;3.3;1.2;;;;;;;;;;;;;
2019/11/04 14:38:32;;;;;;;3.5;1.2;;;;;;;;;;;;;
2019/11/04 14:40:57;;;;;;;2.9;1.3;;;;;;;;;;;;;
2019/11/04 14:43:23;;;;;;;3;1.1;;;;;;;;;;;;;
2019/11/04 14:45:48;;;;;;;2.4;1.1;;;;;;;;;;;;;
2019/11/04 14:48:13;;;;;;;5.1;1.3;;;;;;;;;;;;;
2019/11/04 14:50:38;;;;;;;3.2;1.1;;;;;;;;;;;;;
2019/11/04 14:53:03;;;;;;;4.6;1.4;;;;;;;;;;;;;
2019/11/04 14:55:28;;;;;;;2;1.3;;;;;;;;;;;;;
2019/11/04 14:57:53;;;;;;;2.9;1.2;;;;;;;;;;;;;
2019/11/04 15:00:18;;;;;;;3.6;1.4;;;;;;;;;;;;;
2019/11/04 15:02:44;;;;;;;4;1.3;;;;;;;;;;;;;
2019/11/04 15:05:09;;;;;;;2.2;1.1;;;;;;;;;;;;;
2019/11/04 15:07:34;;;;;;;4.4;1.2;;;;;;;;;;;;;
2019/11/04 15:09:59;;;;;;;6.4;2;;;;;;;;;;;;;
2019/11/04 15:12:24;;;;;;;4.1;1.3;;;;;;;;;;;;;
2019/11/04 15:14:49;;;;;;;3.2;1.3;;;;;;;;;;;;;
2019/11/04 15:17:14;;;;;;;3.9;1.4;;;;;;;;;;;;;
2019/11/04 15:19:40;;;;;;;3.6;1.3;;;;;;;;;;;;;
2019/11/04 15:22:05;;;;;;;4.1;1.3;;;;;;;;;;;;;
2019/11/04 15:24:30;;;;;;;2.5;1.2;;;;;;;;;;;;;
2019/11/04 15:26:55;;;;;;;2.5;1.1;;;;;;;;;;;;;
2019/11/04 15:29:20;;;;;;;2.7;1.3;;;;;;;;;;;;;
2019/11/04 15:31:45;;;;;;;2.8;1.2;;;;;;;;;;;;;
2019/11/04 15:34:10;;;;;;;2.2;1;;;;;;;;;;;;;
2019/11/04 15:36:35;;;;;;;2.8;1;;;;;;;;;;;;;
2019/11/04 15:39:00;;;;;;;3.7;1.3;;;;;;;;;;;;;
2019/11/04 15:41:26;;;;;;;4.3;1.4;;;;;;;;;;;;;
2019/11/04 15:43:51;;;;;;;2.6;1;;;;;;;;;;;;;
2019/11/04 15:46:16;;;;;;;2.7;1.3;;;;;;;;;;;;;
2019/11/04 15:48:41;;;;;;;3.2;1.1;;;;;;;;;;;;;
2019/11/04 15:51:06;;;;;;;5.2;1.3;;;;;;;;;;;;;
2019/11/04 15:53:31;;;;;;;5.5;1.5;;;;;;;;;;;;;
2019/11/04 15:55:56;;;;;;;3.1;1.7;;;;;;;;;;;;;
2019/11/04 15:58:21;;;;;;;2.4;1.3;;;;;;;;;;;;;
2019/11/04 16:00:47;;;;;;;3.8;1.4;;;;;;;;;;;;;
2019/11/04 16:03:12;;;;;;;2.6;1;;;;;;;;;;;;;
2019/11/04 16:05:37;;;;;;;2.9;1.2;;;;;;;;;;;;;
2019/11/04 16:08:02;;;;;;;3.1;1.3;;;;;;;;;;;;;
2019/11/04 16:10:28;;;;;;;2.1;1.3;;;;;;;;;;;;;
2019/11/04 16:12:52;;;;;;;2.5;1.1;;;;;;;;;;;;;
2019/11/04 16:15:17;;;;;;;1.9;1;;;;;;;;;;;;;
2019/11/04 16:17:42;;;;;;;2.3;1.4;;;;;;;;;;;;;
2019/11/04 16:20:07;;;;;;;3;1.2;;;;;;;;;;;;;
2019/11/04 16:22:32;;;;;;;2.8;1.3;;;;;;;;;;;;;
2019/11/04 16:24:57;;;;;;;3.4;1.5;;;;;;;;;;;;;
2019/11/04 16:27:23;;;;;;;5.4;1.4;;;;;;;;;;;;;
2019/11/04 16:29:48;;;;;;;3.1;1.3;;;;;;;;;;;;;
2019/11/04 16:32:13;;;;;;;3.1;1.4;;;;;;;;;;;;;
2019/11/04 16:34:38;;;;;;;2.9;1.3;;;;;;;;;;;;;
2019/11/04 16:37:03;;;;;;;2.9;1.3;;;;;;;;;;;;;
2019/11/04 16:39:28;;;;;;;2.7;1.1;;;;;;;;;;;;;
2019/11/04 16:41:53;;;;;;;1.7;1.2;;;;;;;;;;;;;
2019/11/04 16:44:18;;;;;;;2.9;1.3;;;;;;;;;;;;;
2019/11/04 16:46:43;;;;;;;1.8;1.1;;;;;;;;;;;;;
2019/11/04 16:49:08;;;;;;;2.4;1.2;;;;;;;;;;;;;
2019/11/04 16:51:33;;;;;;;3.2;1.3;;;;;;;;;;;;;
2019/11/04 16:53:59;;;;;;;2;0.9;;;;;;;;;;;;;
2019/11/04 16:56:23;;;;;;;2.6;1.2;;;;;;;;;;;;;
2019/11/04 16:58:48;;;;;;;3.7;1.3;;;;;;;;;;;;;
2019/11/04 17:01:14;;;;;;;2.2;1.1;;;;;;;;;;;;;
2019/11/04 17:03:39;;;;;;;3.2;1.4;;;;;;;;;;;;;
2019/11/04 17:06:05;;;;;;;5.4;1.4;;;;;;;;;;;;;
2019/11/04 17:08:29;;;;;;;3.1;1.2;;;;;;;;;;;;;
2019/11/04 17:10:54;;;;;;;2.8;1.5;;;;;;;;;;;;;
2019/11/04 17:13:19;;;;;;;4.4;1.8;;;;;;;;;;;;;
2019/11/04 17:15:45;;;;;;;2.6;1.8;;;;;;;;;;;;;
2019/11/04 17:18:10;;;;;;;3.1;1.3;;;;;;;;;;;;;
2019/11/04 17:20:36;;;;;;;1.7;1.2;;;;;;;;;;;;;
2019/11/04 17:23:00;;;;;;;3;1.3;;;;;;;;;;;;;
2019/11/04 17:25:26;;;;;;;1.5;1;;;;;;;;;;;;;
2019/11/04 17:27:51;;;;;;;2.4;1.4;;;;;;;;;;;;;
2019/11/04 17:30:16;;;;;;;3;1.3;;;;;;;;;;;;;
2019/11/04 17:32:41;;;;;;;2.3;1.4;;;;;;;;;;;;;
2019/11/04 17:35:06;;;;;;;3.4;1.4;;;;;;;;;;;;;
2019/11/04 17:37:31;;;;;;;4.5;1.5;;;;;;;;;;;;;
2019/11/04 17:39:56;;;;;;;3.3;1.7;;;;;;;;;;;;;
2019/11/04 17:42:21;;;;;;;4.8;2.7;;;;;;;;;;;;;
2019/11/04 17:45:31;;;;;;;3.5;1.8;;;;;;;;;;;;;
2019/11/04 17:47:12;;;;;;;2.4;1.4;;;;;;;;;;;;;
2019/11/04 17:49:37;;;;;;;2;1.2;;;;;;;;;;;;;
2019/11/04 17:52:02;;;;;;;2.9;1.2;;;;;;;;;;;;;
2019/11/04 17:54:27;;;;;;;2.1;1.2;;;;;;;;;;;;;
2019/11/04 17:56:52;;;;;;;2.4;1.3;;;;;;;;;;;;;
2019/11/04 17:59:17;;;;;;;2.6;1.3;;;;;;;;;;;;;
2019/11/04 18:01:42;;;;;;;3.4;2.4;;;;;;;;;;;;;
2019/11/04 18:04:07;;;;;;;3.9;1.9;;;;;;;;;;;;;
2019/11/04 18:06:32;;;;;;;1.9;1;;;;;;;;;;;;;
2019/11/04 18:08:58;;;;;;;3.2;1.3;;;;;;;;;;;;;
2019/11/04 18:11:23;;;;;;;3.5;1.2;;;;;;;;;;;;;
2019/11/04 18:13:48;;;;;;;3;1.2;;;;;;;;;;;;;
2019/11/04 18:16:13;;;;;;;2.4;1.4;;;;;;;;;;;;;
2019/11/04 18:18:38;;;;;;;5;1.2;;;;;;;;;;;;;
2019/11/04 18:21:03;;;;;;;3.4;1.4;;;;;;;;;;;;;
2019/11/04 18:23:28;;;;;;;3.8;1.3;;;;;;;;;;;;;
2019/11/04 18:25:53;;;;;;;2.4;1.4;;;;;;;;;;;;;
2019/11/04 18:28:19;;;;;;;2.3;1.5;;;;;;;;;;;;;
2019/11/04 18:30:45;;;;;;;3;1.3;;;;;;;;;;;;;
2019/11/04 18:33:10;;;;;;;3.8;1.2;;;;;;;;;;;;;
2019/11/04 18:35:35;;;;;;;2.6;1.4;;;;;;;;;;;;;
2019/11/04 18:38:01;;;;;;;2.4;1.3;;;;;;;;;;;;;
2019/11/04 18:40:26;;;;;;;3.4;1.2;;;;;;;;;;;;;
2019/11/04 18:42:51;;;;;;;1.7;1.1;;;;;;;;;;;;;
2019/11/04 18:45:17;;;;;;;2.8;1.3;;;;;;;;;;;;;
2019/11/04 18:47:42;;;;;;;3;1.3;;;;;;;;;;;;;
2019/11/04 18:50:08;;;;;;;2.5;1.4;;;;;;;;;;;;;
2019/11/04 18:52:32;;;;;;;4.2;1.5;;;;;;;;;;;;;
2019/11/04 18:54:56;;;;;;;3.4;1.4;;;;;;;;;;;;;
2019/11/04 18:57:21;;;;;;;2.2;1.2;;;;;;;;;;;;;
2019/11/04 18:59:46;;;;;;;3.2;1.4;;;;;;;;;;;;;
2019/11/04 19:02:12;;;;;;;2.4;1.3;;;;;;;;;;;;;
2019/11/04 19:04:38;;;;;;;2.7;1.2;;;;;;;;;;;;;
2019/11/04 19:07:03;;;;;;;3.2;1.2;;;;;;;;;;;;;
2019/11/04 19:09:27;;;;;;;3;1.2;;;;;;;;;;;;;
2019/11/04 19:11:53;;;;;;;2;1.3;;;;;;;;;;;;;